Decoded Metar for PAFR (FORT RICHARDSON in USA) (IATA:N/A) | Meteo·Mobile Aviation Weather
aviador You're here:

PAFR Decoded Metar

FORT RICHARDSON in USA
Report Time2018-10-20 04:58:00
UTC Time2018-10-20 05:08:09
Flight Rules mvfr MVFR
Wind180° at 09 kt
W.Decomp.*RWY 17: 8.9 kt HW 1.4 kt LCW
W.Rank180° ranks 18
Current wind is above 180° avg. (4.8)
Visibility9999 m
Phenomena:Light Rain
Clouds:Overcast 021 Hf
Expected CloudBase > 400 ft AGL from Temp-Dew spread
Ceiling2,100 ft
Temp06°C (ISA -8)
Dew Point05°C (93% RH)
AAT1.6°C
QNH985 hPa
Density Alt466 ft
Elevation377 ft
Report Wrong Elevation
Raw Report
PAFR 200458Z AUTO 18009KT 7SM -RA OVC021 06/05 A2909 RMK AO2
SLP858 P0003 T00560049=

Extra information for PAFR:More info

Metar Taf Metar & Taf Last 4 Metars F.Rules Stats Wind Profile Meteogram Temp Stats Airport Information Weather charts Add Link Nearby VenuesMetar ALERT Operation Metar Decoded Social comments

AIRNAV info for PAFR